sensor_id;sensor_type;location;lat;lon;timestamp;pressure;altitude;pressure_sealevel;temperature;humidity
11710;BME280;5911;51.036;6.972;2022-08-21T00:00:21;100900.69;;;20.90;92.10
11710;BME280;5911;51.036;6.972;2022-08-21T00:02:52;100904.56;;;20.87;91.40
11710;BME280;5911;51.036;6.972;2022-08-21T00:05:23;100901.88;;;20.87;92.17
11710;BME280;5911;51.036;6.972;2022-08-21T00:07:52;100894.69;;;20.88;92.44
11710;BME280;5911;51.036;6.972;2022-08-21T00:10:21;100897.63;;;20.93;92.65
11710;BME280;5911;51.036;6.972;2022-08-21T00:12:49;100892.66;;;20.90;92.18
11710;BME280;5911;51.036;6.972;2022-08-21T00:15:20;100889.50;;;20.86;91.46
11710;BME280;5911;51.036;6.972;2022-08-21T00:17:48;100886.53;;;20.81;91.26
11710;BME280;5911;51.036;6.972;2022-08-21T00:20:17;100887.34;;;20.82;91.92
11710;BME280;5911;51.036;6.972;2022-08-21T00:22:46;100883.19;;;20.79;92.37
11710;BME280;5911;51.036;6.972;2022-08-21T00:25:15;100878.22;;;20.76;92.51
11710;BME280;5911;51.036;6.972;2022-08-21T00:27:50;100888.47;;;20.73;92.78
11710;BME280;5911;51.036;6.972;2022-08-21T00:30:19;100878.13;;;20.69;92.72
11710;BME280;5911;51.036;6.972;2022-08-21T00:32:49;100875.63;;;20.68;92.66
11710;BME280;5911;51.036;6.972;2022-08-21T00:35:22;100871.91;;;20.69;92.96
11710;BME280;5911;51.036;6.972;2022-08-21T00:37:51;100868.59;;;20.67;93.00
11710;BME280;5911;51.036;6.972;2022-08-21T00:40:22;100865.25;;;20.65;92.81
11710;BME280;5911;51.036;6.972;2022-08-21T00:42:51;100866.44;;;20.62;92.48
11710;BME280;5911;51.036;6.972;2022-08-21T00:45:20;100866.84;;;20.59;93.26
11710;BME280;5911;51.036;6.972;2022-08-21T00:47:48;100874.88;;;20.59;93.16
11710;BME280;5911;51.036;6.972;2022-08-21T00:50:17;100867.03;;;20.58;92.83
11710;BME280;5911;51.036;6.972;2022-08-21T00:52:49;100874.94;;;20.51;93.64
11710;BME280;5911;51.036;6.972;2022-08-21T00:55:20;100877.28;;;20.54;93.54
11710;BME280;5911;51.036;6.972;2022-08-21T00:57:52;100879.13;;;20.54;93.20
11710;BME280;5911;51.036;6.972;2022-08-21T01:00:25;100874.47;;;20.48;93.03
11710;BME280;5911;51.036;6.972;2022-08-21T01:02:55;100877.38;;;20.46;93.42
11710;BME280;5911;51.036;6.972;2022-08-21T01:05:24;100875.53;;;20.47;93.78
11710;BME280;5911;51.036;6.972;2022-08-21T01:07:54;100876.16;;;20.49;94.19
11710;BME280;5911;51.036;6.972;2022-08-21T01:10:25;100862.84;;;20.41;93.76
11710;BME280;5911;51.036;6.972;2022-08-21T01:12:54;100872.19;;;20.45;93.42
11710;BME280;5911;51.036;6.972;2022-08-21T01:15:26;100872.91;;;20.39;94.49
11710;BME280;5911;51.036;6.972;2022-08-21T01:17:57;100871.91;;;20.40;93.79
11710;BME280;5911;51.036;6.972;2022-08-21T01:20:25;100882.97;;;20.36;93.30
11710;BME280;5911;51.036;6.972;2022-08-21T01:23:00;100888.81;;;20.40;93.68
11710;BME280;5911;51.036;6.972;2022-08-21T01:25:28;100886.31;;;20.39;92.98
11710;BME280;5911;51.036;6.972;2022-08-21T01:27:59;100877.44;;;20.38;93.33
11710;BME280;5911;51.036;6.972;2022-08-21T01:30:29;100882.97;;;20.36;93.04
11710;BME280;5911;51.036;6.972;2022-08-21T01:32:59;100878.94;;;20.41;93.75
11710;BME280;5911;51.036;6.972;2022-08-21T01:35:26;100879.28;;;20.38;92.66
11710;BME280;5911;51.036;6.972;2022-08-21T01:37:55;100881.97;;;20.38;92.48
11710;BME280;5911;51.036;6.972;2022-08-21T01:40:24;100879.59;;;20.34;92.78
11710;BME280;5911;51.036;6.972;2022-08-21T01:42:52;100872.13;;;20.30;92.74
11710;BME280;5911;51.036;6.972;2022-08-21T01:45:20;100876.28;;;20.32;93.40
11710;BME280;5911;51.036;6.972;2022-08-21T01:47:48;100874.63;;;20.31;92.69
11710;BME280;5911;51.036;6.972;2022-08-21T01:50:18;100875.00;;;20.28;93.07
11710;BME280;5911;51.036;6.972;2022-08-21T01:52:47;100864.34;;;20.20;92.48
11710;BME280;5911;51.036;6.972;2022-08-21T01:55:16;100871.72;;;20.18;92.65
11710;BME280;5911;51.036;6.972;2022-08-21T01:57:45;100868.94;;;20.12;92.75
11710;BME280;5911;51.036;6.972;2022-08-21T02:00:16;100868.41;;;20.16;93.06
11710;BME280;5911;51.036;6.972;2022-08-21T02:02:44;100868.13;;;20.11;93.07
11710;BME280;5911;51.036;6.972;2022-08-21T02:05:12;100868.47;;;20.08;93.39
11710;BME280;5911;51.036;6.972;2022-08-21T02:07:44;100856.28;;;20.06;93.45
11710;BME280;5911;51.036;6.972;2022-08-21T02:10:14;100853.31;;;20.00;92.77
11710;BME280;5911;51.036;6.972;2022-08-21T02:12:42;100860.13;;;20.03;93.31
11710;BME280;5911;51.036;6.972;2022-08-21T02:15:12;100860.88;;;19.97;93.07
11710;BME280;5911;51.036;6.972;2022-08-21T02:17:41;100859.69;;;19.99;93.76
11710;BME280;5911;51.036;6.972;2022-08-21T02:20:15;100860.13;;;20.03;92.98
11710;BME280;5911;51.036;6.972;2022-08-21T02:22:43;100862.53;;;19.98;92.88
11710;BME280;5911;51.036;6.972;2022-08-21T02:25:11;100860.31;;;20.01;92.92
11710;BME280;5911;51.036;6.972;2022-08-21T02:27:40;100858.84;;;19.99;92.49
11710;BME280;5911;51.036;6.972;2022-08-21T02:30:10;100864.56;;;19.96;92.57
11710;BME280;5911;51.036;6.972;2022-08-21T02:32:42;100866.22;;;19.97;92.00
11710;BME280;5911;51.036;6.972;2022-08-21T02:35:11;100861.94;;;19.88;91.92
11710;BME280;5911;51.036;6.972;2022-08-21T02:37:43;100860.28;;;19.87;91.88
11710;BME280;5911;51.036;6.972;2022-08-21T02:40:12;100860.94;;;19.89;92.27
11710;BME280;5911;51.036;6.972;2022-08-21T02:42:40;100856.88;;;19.93;92.24
11710;BME280;5911;51.036;6.972;2022-08-21T02:45:10;100852.53;;;19.92;92.30
11710;BME280;5911;51.036;6.972;2022-08-21T02:47:39;100856.59;;;19.88;91.81
11710;BME280;5911;51.036;6.972;2022-08-21T02:50:08;100858.63;;;19.86;91.74
11710;BME280;5911;51.036;6.972;2022-08-21T02:52:36;100855.56;;;19.89;91.86
11710;BME280;5911;51.036;6.972;2022-08-21T02:55:04;100856.59;;;19.88;91.32
11710;BME280;5911;51.036;6.972;2022-08-21T02:57:32;100846.72;;;19.88;92.13
11710;BME280;5911;51.036;6.972;2022-08-21T03:00:00;100848.56;;;19.88;91.54
11710;BME280;5911;51.036;6.972;2022-08-21T03:02:28;100854.91;;;19.87;92.06
11710;BME280;5911;51.036;6.972;2022-08-21T03:04:56;100851.97;;;19.82;91.73
11710;BME280;5911;51.036;6.972;2022-08-21T03:07:26;100850.81;;;19.76;91.57
11710;BME280;5911;51.036;6.972;2022-08-21T03:09:54;100849.34;;;19.74;91.67
11710;BME280;5911;51.036;6.972;2022-08-21T03:12:22;100841.13;;;19.75;91.67
11710;BME280;5911;51.036;6.972;2022-08-21T03:14:52;100848.97;;;19.77;91.88
11710;BME280;5911;51.036;6.972;2022-08-21T03:17:19;100850.72;;;19.70;91.12
11710;BME280;5911;51.036;6.972;2022-08-21T03:19:56;100852.56;;;19.69;91.00
11710;BME280;5911;51.036;6.972;2022-08-21T03:22:26;100851.72;;;19.69;91.15
11710;BME280;5911;51.036;6.972;2022-08-21T03:24:56;100850.06;;;19.67;91.59
11710;BME280;5911;51.036;6.972;2022-08-21T03:27:25;100842.69;;;19.70;91.70
11710;BME280;5911;51.036;6.972;2022-08-21T03:29:55;100846.56;;;19.67;91.93
11710;BME280;5911;51.036;6.972;2022-08-21T03:32:23;100847.03;;;19.71;92.70
11710;BME280;5911;51.036;6.972;2022-08-21T03:34:51;100850.06;;;19.67;92.25
11710;BME280;5911;51.036;6.972;2022-08-21T03:37:18;100839.88;;;19.63;92.66
11710;BME280;5911;51.036;6.972;2022-08-21T03:39:48;100857.44;;;19.65;92.50
11710;BME280;5911;51.036;6.972;2022-08-21T03:42:16;100852.44;;;19.62;92.98
11710;BME280;5911;51.036;6.972;2022-08-21T03:44:44;100841.91;;;19.61;92.33
11710;BME280;5911;51.036;6.972;2022-08-21T03:47:11;100846.59;;;19.59;92.46
11710;BME280;5911;51.036;6.972;2022-08-21T03:49:40;100846.78;;;19.57;92.56
11710;BME280;5911;51.036;6.972;2022-08-21T03:52:08;100849.44;;;19.57;92.69
11710;BME280;5911;51.036;6.972;2022-08-21T03:54:36;100854.81;;;19.57;92.58
11710;BME280;5911;51.036;6.972;2022-08-21T03:57:06;100852.97;;;19.58;92.63
11710;BME280;5911;51.036;6.972;2022-08-21T03:59:35;100859.69;;;19.54;92.25
11710;BME280;5911;51.036;6.972;2022-08-21T04:02:05;100854.19;;;19.47;91.73
11710;BME280;5911;51.036;6.972;2022-08-21T04:04:33;100857.88;;;19.46;92.17
11710;BME280;5911;51.036;6.972;2022-08-21T04:07:03;100845.16;;;19.48;92.52
11710;BME280;5911;51.036;6.972;2022-08-21T04:09:31;100859.72;;;19.46;91.80
11710;BME280;5911;51.036;6.972;2022-08-21T04:11:59;100865.72;;;19.48;92.22
11710;BME280;5911;51.036;6.972;2022-08-21T04:14:28;100864.06;;;19.47;91.98
11710;BME280;5911;51.036;6.972;2022-08-21T04:16:56;100862.28;;;19.39;92.07
11710;BME280;5911;51.036;6.972;2022-08-21T04:19:24;100865.06;;;19.46;92.21
11710;BME280;5911;51.036;6.972;2022-08-21T04:21:52;100861.38;;;19.47;92.98
11710;BME280;5911;51.036;6.972;2022-08-21T04:24:20;100850.53;;;19.40;92.63
11710;BME280;5911;51.036;6.972;2022-08-21T04:26:48;100860.22;;;19.41;92.26
11710;BME280;5911;51.036;6.972;2022-08-21T04:29:16;100863.91;;;19.40;92.73
11710;BME280;5911;51.036;6.972;2022-08-21T04:31:45;100859.38;;;19.41;93.07
11710;BME280;5911;51.036;6.972;2022-08-21T04:34:13;100870.47;;;19.38;92.28
11710;BME280;5911;51.036;6.972;2022-08-21T04:36:41;100873.31;;;19.36;92.68
11710;BME280;5911;51.036;6.972;2022-08-21T04:39:10;100863.13;;;19.31;92.03
11710;BME280;5911;51.036;6.972;2022-08-21T04:41:37;100876.66;;;19.38;92.43
11710;BME280;5911;51.036;6.972;2022-08-21T04:44:06;100881.16;;;19.38;91.99
11710;BME280;5911;51.036;6.972;2022-08-21T04:46:35;100867.81;;;19.29;92.72
11710;BME280;5911;51.036;6.972;2022-08-21T04:49:04;100874.34;;;19.27;93.22
11710;BME280;5911;51.036;6.972;2022-08-21T04:51:35;100899.44;;;19.26;92.06
11710;BME280;5911;51.036;6.972;2022-08-21T04:54:09;100887.38;;;19.30;93.42
11710;BME280;5911;51.036;6.972;2022-08-21T04:56:40;100872.22;;;19.22;94.46
11710;BME280;5911;51.036;6.972;2022-08-21T04:59:15;100893.06;;;19.35;93.98
11710;BME280;5911;51.036;6.972;2022-08-21T05:01:45;100887.06;;;19.25;93.14
11710;BME280;5911;51.036;6.972;2022-08-21T05:04:18;100894.75;;;19.28;93.78
11710;BME280;5911;51.036;6.972;2022-08-21T05:06:50;100893.41;;;19.32;94.40
11710;BME280;5911;51.036;6.972;2022-08-21T05:09:20;100898.75;;;19.32;94.69
11710;BME280;5911;51.036;6.972;2022-08-21T05:11:49;100903.75;;;19.35;94.94
11710;BME280;5911;51.036;6.972;2022-08-21T05:14:19;100899.25;;;19.36;94.85
11710;BME280;5911;51.036;6.972;2022-08-21T05:16:47;100894.72;;;19.36;95.29
11710;BME280;5911;51.036;6.972;2022-08-21T05:19:16;100899.00;;;19.45;95.43
11710;BME280;5911;51.036;6.972;2022-08-21T05:21:45;100899.84;;;19.46;94.86
11710;BME280;5911;51.036;6.972;2022-08-21T05:24:14;100896.00;;;19.48;95.46
11710;BME280;5911;51.036;6.972;2022-08-21T05:26:43;100878.59;;;19.44;96.41
11710;BME280;5911;51.036;6.972;2022-08-21T05:29:14;100880.28;;;19.45;96.29
11710;BME280;5911;51.036;6.972;2022-08-21T05:31:45;100858.94;;;19.37;95.74
11710;BME280;5911;51.036;6.972;2022-08-21T05:34:13;100893.47;;;19.55;95.93
11710;BME280;5911;51.036;6.972;2022-08-21T05:36:47;100851.94;;;19.28;95.74
11710;BME280;5911;51.036;6.972;2022-08-21T05:39:15;100893.00;;;19.51;95.95
11710;BME280;5911;51.036;6.972;2022-08-21T05:41:47;100827.97;;;19.12;94.71
11710;BME280;5911;51.036;6.972;2022-08-21T05:44:15;100889.78;;;19.56;95.68
11710;BME280;5911;51.036;6.972;2022-08-21T05:46:46;100901.44;;;19.63;94.17
11710;BME280;5911;51.036;6.972;2022-08-21T05:49:13;100892.28;;;19.57;93.83
11710;BME280;5911;51.036;6.972;2022-08-21T05:51:43;100861.63;;;19.29;92.51
11710;BME280;5911;51.036;6.972;2022-08-21T05:54:13;100906.03;;;19.54;92.05
11710;BME280;5911;51.036;6.972;2022-08-21T05:56:41;100906.31;;;19.59;92.20
11710;BME280;5911;51.036;6.972;2022-08-21T05:59:13;100878.78;;;19.43;91.71
11710;BME280;5911;51.036;6.972;2022-08-21T06:01:41;100905.81;;;19.56;92.04
11710;BME280;5911;51.036;6.972;2022-08-21T06:04:09;100903.28;;;19.62;93.07
11710;BME280;5911;51.036;6.972;2022-08-21T06:06:37;100909.66;;;19.61;93.11
11710;BME280;5911;51.036;6.972;2022-08-21T06:09:06;100908.47;;;19.64;93.65
11710;BME280;5911;51.036;6.972;2022-08-21T06:11:34;100885.16;;;19.50;93.16
11710;BME280;5911;51.036;6.972;2022-08-21T06:14:03;100866.91;;;19.45;93.67
11710;BME280;5911;51.036;6.972;2022-08-21T06:16:33;100881.56;;;19.57;93.54
11710;BME280;5911;51.036;6.972;2022-08-21T06:19:00;100902.69;;;19.75;93.75
11710;BME280;5911;51.036;6.972;2022-08-21T06:21:28;100895.84;;;19.73;94.04
11710;BME280;5911;51.036;6.972;2022-08-21T06:23:57;100838.97;;;19.48;96.09
11710;BME280;5911;51.036;6.972;2022-08-21T06:26:26;100905.78;;;19.87;95.97
11710;BME280;5911;51.036;6.972;2022-08-21T06:28:56;100905.63;;;19.88;94.95
11710;BME280;5911;51.036;6.972;2022-08-21T06:31:30;100904.44;;;19.91;95.69
11710;BME280;5911;51.036;6.972;2022-08-21T06:33:58;100910.28;;;19.94;95.76
11710;BME280;5911;51.036;6.972;2022-08-21T06:36:28;100890.50;;;19.95;95.44
11710;BME280;5911;51.036;6.972;2022-08-21T06:38:56;100893.50;;;20.00;95.22
11710;BME280;5911;51.036;6.972;2022-08-21T06:41:24;100894.97;;;20.03;94.72
11710;BME280;5911;51.036;6.972;2022-08-21T06:43:58;100781.56;;;19.27;93.64
11710;BME280;5911;51.036;6.972;2022-08-21T06:46:27;100900.63;;;20.08;94.08
11710;BME280;5911;51.036;6.972;2022-08-21T06:48:57;100896.28;;;20.07;93.40
11710;BME280;5911;51.036;6.972;2022-08-21T06:51:25;100864.44;;;19.89;94.77
11710;BME280;5911;51.036;6.972;2022-08-21T06:53:54;100894.91;;;20.11;94.73
11710;BME280;5911;51.036;6.972;2022-08-21T06:56:26;100905.53;;;20.19;93.76
11710;BME280;5911;51.036;6.972;2022-08-21T06:58:56;100858.25;;;19.89;92.21
11710;BME280;5911;51.036;6.972;2022-08-21T07:01:25;100898.81;;;20.23;89.54
11710;BME280;5911;51.036;6.972;2022-08-21T07:03:56;100905.19;;;20.22;89.87
11710;BME280;5911;51.036;6.972;2022-08-21T07:06:24;100905.34;;;20.21;88.88
11710;BME280;5911;51.036;6.972;2022-08-21T07:08:52;100901.78;;;20.28;88.20
11710;BME280;5911;51.036;6.972;2022-08-21T07:11:24;100896.88;;;20.32;88.10
11710;BME280;5911;51.036;6.972;2022-08-21T07:13:52;100904.41;;;20.36;88.92
11710;BME280;5911;51.036;6.972;2022-08-21T07:16:24;100911.44;;;20.38;87.66
11710;BME280;5911;51.036;6.972;2022-08-21T07:18:52;100908.94;;;20.36;86.76
11710;BME280;5911;51.036;6.972;2022-08-21T07:21:20;100912.59;;;20.35;86.29
11710;BME280;5911;51.036;6.972;2022-08-21T07:23:54;100914.06;;;20.46;86.33
11710;BME280;5911;51.036;6.972;2022-08-21T07:26:23;100909.97;;;20.50;85.16
11710;BME280;5911;51.036;6.972;2022-08-21T07:28:52;100913.59;;;20.57;84.44
11710;BME280;5911;51.036;6.972;2022-08-21T07:31:24;100893.44;;;20.46;85.23
11710;BME280;5911;51.036;6.972;2022-08-21T07:33:53;100912.84;;;20.63;88.29
11710;BME280;5911;51.036;6.972;2022-08-21T07:36:21;100905.94;;;20.54;85.42
11710;BME280;5911;51.036;6.972;2022-08-21T07:38:53;100888.94;;;20.47;86.17
11710;BME280;5911;51.036;6.972;2022-08-21T07:41:26;100911.22;;;20.62;85.23
11710;BME280;5911;51.036;6.972;2022-08-21T07:43:55;100904.09;;;20.69;84.42
11710;BME280;5911;51.036;6.972;2022-08-21T07:46:25;100900.09;;;20.65;84.08
11710;BME280;5911;51.036;6.972;2022-08-21T07:48:54;100898.44;;;20.64;83.74
11710;BME280;5911;51.036;6.972;2022-08-21T07:51:25;100896.69;;;20.71;85.67
11710;BME280;5911;51.036;6.972;2022-08-21T07:53:56;100892.16;;;20.71;81.30
11710;BME280;5911;51.036;6.972;2022-08-21T07:56:25;100901.78;;;20.81;82.33
11710;BME280;5911;51.036;6.972;2022-08-21T07:58:53;100900.41;;;20.85;82.72
11710;BME280;5911;51.036;6.972;2022-08-21T08:01:22;100904.19;;;20.90;80.85
11710;BME280;5911;51.036;6.972;2022-08-21T08:03:51;100861.56;;;20.66;78.86
11710;BME280;5911;51.036;6.972;2022-08-21T08:06:19;100907.78;;;20.97;79.06
11710;BME280;5911;51.036;6.972;2022-08-21T08:08:47;100906.50;;;20.93;78.12
11710;BME280;5911;51.036;6.972;2022-08-21T08:11:15;100885.25;;;20.77;79.47
11710;BME280;5911;51.036;6.972;2022-08-21T08:13:47;100911.50;;;20.96;79.10
11710;BME280;5911;51.036;6.972;2022-08-21T08:16:15;100902.06;;;21.00;77.58
11710;BME280;5911;51.036;6.972;2022-08-21T08:18:44;100915.09;;;21.03;77.29
11710;BME280;5911;51.036;6.972;2022-08-21T08:21:14;100900.31;;;20.93;76.96
11710;BME280;5911;51.036;6.972;2022-08-21T08:23:43;100889.47;;;21.01;77.35
11710;BME280;5911;51.036;6.972;2022-08-21T08:26:11;100894.47;;;21.19;77.03
11710;BME280;5911;51.036;6.972;2022-08-21T08:28:39;100902.41;;;21.27;75.68
11710;BME280;5911;51.036;6.972;2022-08-21T08:31:07;100905.38;;;21.32;75.79
11710;BME280;5911;51.036;6.972;2022-08-21T08:33:35;100900.84;;;21.32;75.57
11710;BME280;5911;51.036;6.972;2022-08-21T08:36:03;100868.84;;;21.16;74.69
11710;BME280;5911;51.036;6.972;2022-08-21T08:38:35;100901.38;;;21.42;74.21
11710;BME280;5911;51.036;6.972;2022-08-21T08:41:07;100894.44;;;21.48;73.71
11710;BME280;5911;51.036;6.972;2022-08-21T08:43:41;100904.38;;;21.54;73.65
11710;BME280;5911;51.036;6.972;2022-08-21T08:46:13;100888.94;;;21.56;73.80
11710;BME280;5911;51.036;6.972;2022-08-21T08:48:47;100882.16;;;21.60;73.44
11710;BME280;5911;51.036;6.972;2022-08-21T08:51:23;100884.00;;;21.60;71.80
11710;BME280;5911;51.036;6.972;2022-08-21T08:53:57;100881.78;;;21.63;70.00
11710;BME280;5911;51.036;6.972;2022-08-21T08:56:30;100887.16;;;21.63;70.30
11710;BME280;5911;51.036;6.972;2022-08-21T08:59:02;100882.25;;;21.67;70.91
11710;BME280;5911;51.036;6.972;2022-08-21T09:01:34;100885.81;;;21.74;70.38
11710;BME280;5911;51.036;6.972;2022-08-21T09:04:05;100872.16;;;21.69;69.07
11710;BME280;5911;51.036;6.972;2022-08-21T09:06:40;100882.00;;;21.83;68.75
11710;BME280;5911;51.036;6.972;2022-08-21T09:09:22;100880.56;;;21.87;67.92
11710;BME280;5911;51.036;6.972;2022-08-21T09:12:00;100875.91;;;21.96;67.85
11710;BME280;5911;51.036;6.972;2022-08-21T09:14:42;100864.41;;;22.02;67.43
11710;BME280;5911;51.036;6.972;2022-08-21T09:17:23;100868.69;;;21.96;65.67
11710;BME280;5911;51.036;6.972;2022-08-21T09:20:01;100837.34;;;21.82;66.62
11710;BME280;5911;51.036;6.972;2022-08-21T09:22:40;100864.78;;;21.99;65.31
11710;BME280;5911;51.036;6.972;2022-08-21T09:25:18;100863.38;;;22.03;65.31
11710;BME280;5911;51.036;6.972;2022-08-21T09:27:49;100862.34;;;22.04;63.61
11710;BME280;5911;51.036;6.972;2022-08-21T09:30:20;100820.81;;;21.85;63.45
11710;BME280;5911;51.036;6.972;2022-08-21T09:32:51;100865.75;;;22.13;63.54
11710;BME280;5911;51.036;6.972;2022-08-21T09:35:21;100865.56;;;22.14;63.19
11710;BME280;5911;51.036;6.972;2022-08-21T09:37:54;100861.88;;;22.22;63.16
11710;BME280;5911;51.036;6.972;2022-08-21T09:40:31;100860.94;;;22.29;62.81
11710;BME280;5911;51.036;6.972;2022-08-21T09:43:02;100857.59;;;22.27;62.53
11710;BME280;5911;51.036;6.972;2022-08-21T09:45:31;100826.50;;;22.18;62.60
11710;BME280;5911;51.036;6.972;2022-08-21T09:48:11;100848.34;;;22.36;62.49
11710;BME280;5911;51.036;6.972;2022-08-21T09:50:40;100850.19;;;22.36;63.25
11710;BME280;5911;51.036;6.972;2022-08-21T09:53:16;100840.44;;;22.28;61.28
11710;BME280;5911;51.036;6.972;2022-08-21T09:55:52;100825.81;;;22.37;61.47
11710;BME280;5911;51.036;6.972;2022-08-21T09:58:38;100844.16;;;22.62;60.34
11710;BME280;5911;51.036;6.972;2022-08-21T10:01:13;100847.53;;;22.70;60.51
11710;BME280;5911;51.036;6.972;2022-08-21T10:03:41;100848.81;;;22.74;60.33
11710;BME280;5911;51.036;6.972;2022-08-21T10:06:09;100794.44;;;22.44;59.97
11710;BME280;5911;51.036;6.972;2022-08-21T10:08:48;100835.19;;;22.83;59.91
11710;BME280;5911;51.036;6.972;2022-08-21T10:11:17;100841.66;;;22.88;59.92
11710;BME280;5911;51.036;6.972;2022-08-21T10:13:55;100834.38;;;22.82;58.57
11710;BME280;5911;51.036;6.972;2022-08-21T10:16:33;100827.72;;;22.78;58.20
11710;BME280;5911;51.036;6.972;2022-08-21T10:19:15;100838.16;;;22.94;58.28
11710;BME280;5911;51.036;6.972;2022-08-21T10:21:58;100841.06;;;22.99;58.29
11710;BME280;5911;51.036;6.972;2022-08-21T10:24:31;100822.03;;;23.07;58.00
11710;BME280;5911;51.036;6.972;2022-08-21T10:27:16;100827.91;;;23.24;58.67
11710;BME280;5911;51.036;6.972;2022-08-21T10:29:54;100835.47;;;23.55;57.24
11710;BME280;5911;51.036;6.972;2022-08-21T10:35:13;100835.09;;;24.37;54.10
11710;BME280;5911;51.036;6.972;2022-08-21T10:37:52;100831.28;;;24.71;52.26
11710;BME280;5911;51.036;6.972;2022-08-21T10:40:28;100829.16;;;24.86;50.28
11710;BME280;5911;51.036;6.972;2022-08-21T10:43:10;100840.47;;;25.15;50.34
11710;BME280;5911;51.036;6.972;2022-08-21T10:45:52;100833.06;;;25.42;49.94
11710;BME280;5911;51.036;6.972;2022-08-21T10:48:25;100835.88;;;25.53;49.48
11710;BME280;5911;51.036;6.972;2022-08-21T10:50:59;100829.75;;;25.40;48.63
11710;BME280;5911;51.036;6.972;2022-08-21T10:53:51;100823.97;;;25.68;50.22
11710;BME280;5911;51.036;6.972;2022-08-21T10:56:23;100824.97;;;25.73;47.69
11710;BME280;5911;51.036;6.972;2022-08-21T10:59:22;100820.94;;;25.82;47.02
11710;BME280;5911;51.036;6.972;2022-08-21T11:01:54;100822.66;;;26.02;46.56
11710;BME280;5911;51.036;6.972;2022-08-21T11:04:30;100830.22;;;26.18;46.71
11710;BME280;5911;51.036;6.972;2022-08-21T11:07:18;100824.56;;;26.44;46.84
11710;BME280;5911;51.036;6.972;2022-08-21T11:09:49;100827.16;;;26.57;45.94
11710;BME280;5911;51.036;6.972;2022-08-21T11:12:23;100828.50;;;26.67;45.40
11710;BME280;5911;51.036;6.972;2022-08-21T11:14:58;100824.97;;;26.66;44.64
11710;BME280;5911;51.036;6.972;2022-08-21T11:17:32;100799.25;;;26.57;44.13
11710;BME280;5911;51.036;6.972;2022-08-21T11:20:05;100825.41;;;26.81;44.62
11710;BME280;5911;51.036;6.972;2022-08-21T11:22:40;100707.69;;;26.17;42.74
11710;BME280;5911;51.036;6.972;2022-08-21T11:25:14;100817.75;;;26.96;42.80
11710;BME280;5911;51.036;6.972;2022-08-21T11:27:51;100831.16;;;27.21;42.42
11710;BME280;5911;51.036;6.972;2022-08-21T11:30:30;100800.19;;;27.17;42.44
11710;BME280;5911;51.036;6.972;2022-08-21T11:33:12;100814.66;;;27.53;42.87
11710;BME280;5911;51.036;6.972;2022-08-21T11:35:51;100824.41;;;27.72;42.57
11710;BME280;5911;51.036;6.972;2022-08-21T11:38:28;100733.47;;;27.46;42.36
11710;BME280;5911;51.036;6.972;2022-08-21T11:41:11;100735.53;;;27.74;41.16
11710;BME280;5911;51.036;6.972;2022-08-21T11:43:44;100814.44;;;28.31;39.65
11710;BME280;5911;51.036;6.972;2022-08-21T11:46:20;100677.53;;;27.75;39.50
11710;BME280;5911;51.036;6.972;2022-08-21T11:49:12;100820.06;;;28.64;37.88
11710;BME280;5911;51.036;6.972;2022-08-21T11:51:50;100817.25;;;28.83;38.56
11710;BME280;5911;51.036;6.972;2022-08-21T11:54:30;100609.28;;;27.78;37.65
11710;BME280;5911;51.036;6.972;2022-08-21T11:57:03;100826.53;;;29.27;36.84
11710;BME280;5911;51.036;6.972;2022-08-21T11:59:38;100826.00;;;29.42;36.65
11710;BME280;5911;51.036;6.972;2022-08-21T12:02:13;100827.19;;;29.34;37.32
11710;BME280;5911;51.036;6.972;2022-08-21T12:04:45;100816.31;;;29.17;39.25
11710;BME280;5911;51.036;6.972;2022-08-21T12:07:30;100823.22;;;29.25;38.22
11710;BME280;5911;51.036;6.972;2022-08-21T12:09:59;100814.06;;;29.14;38.58
11710;BME280;5911;51.036;6.972;2022-08-21T12:12:31;100818.84;;;28.95;38.66
11710;BME280;5911;51.036;6.972;2022-08-21T12:15:16;100814.75;;;28.81;39.05
11710;BME280;5911;51.036;6.972;2022-08-21T12:17:59;100812.81;;;28.93;38.96
11710;BME280;5911;51.036;6.972;2022-08-21T12:20:42;100798.69;;;29.36;38.43
11710;BME280;5911;51.036;6.972;2022-08-21T12:23:26;100805.69;;;29.61;38.89
11710;BME280;5911;51.036;6.972;2022-08-21T12:26:17;100795.56;;;29.28;38.70
11710;BME280;5911;51.036;6.972;2022-08-21T12:28:48;100799.34;;;29.27;39.60
11710;BME280;5911;51.036;6.972;2022-08-21T12:31:18;100793.63;;;29.40;39.17
11710;BME280;5911;51.036;6.972;2022-08-21T12:33:54;100792.13;;;29.32;38.51
11710;BME280;5911;51.036;6.972;2022-08-21T12:36:42;100797.94;;;29.53;39.34
11710;BME280;5911;51.036;6.972;2022-08-21T12:39:14;100606.88;;;28.62;38.84
11710;BME280;5911;51.036;6.972;2022-08-21T12:41:47;100789.56;;;30.04;37.86
11710;BME280;5911;51.036;6.972;2022-08-21T12:44:22;100783.13;;;29.94;37.61
11710;BME280;5911;51.036;6.972;2022-08-21T12:46:57;100803.91;;;30.00;38.13
11710;BME280;5911;51.036;6.972;2022-08-21T12:49:30;100805.19;;;30.31;38.03
11710;BME280;5911;51.036;6.972;2022-08-21T12:52:03;100804.31;;;30.47;36.99
11710;BME280;5911;51.036;6.972;2022-08-21T12:54:38;100799.59;;;29.70;37.03
11710;BME280;5911;51.036;6.972;2022-08-21T12:57:08;100800.06;;;29.67;38.23
11710;BME280;5911;51.036;6.972;2022-08-21T12:59:38;100796.66;;;30.05;37.14
11710;BME280;5911;51.036;6.972;2022-08-21T13:02:15;100782.19;;;30.22;36.99
11710;BME280;5911;51.036;6.972;2022-08-21T13:04:47;100711.03;;;29.96;36.54
11710;BME280;5911;51.036;6.972;2022-08-21T13:07:26;100782.53;;;30.47;36.20
11710;BME280;5911;51.036;6.972;2022-08-21T13:09:59;100795.25;;;30.41;35.48
11710;BME280;5911;51.036;6.972;2022-08-21T13:12:28;100687.91;;;29.77;35.20
11710;BME280;5911;51.036;6.972;2022-08-21T13:15:00;100803.22;;;30.48;35.49
11710;BME280;5911;51.036;6.972;2022-08-21T13:17:36;100727.28;;;30.08;35.55
11710;BME280;5911;51.036;6.972;2022-08-21T13:20:09;100788.28;;;30.67;34.63
11710;BME280;5911;51.036;6.972;2022-08-21T13:22:42;100776.56;;;30.50;35.26
11710;BME280;5911;51.036;6.972;2022-08-21T13:25:11;100790.69;;;30.47;35.72